createdAt,value
2023-07-29T09:20:00.186Z,19.6
2023-07-29T09:25:00.187Z,16.4
2023-07-29T09:30:00.120Z,21.3
2023-07-29T09:35:00.135Z,14.3
2023-07-29T09:40:00.139Z,15.8
2023-07-29T09:45:00.119Z,14.5
2023-07-29T09:50:00.138Z,18.6
2023-07-29T09:55:00.137Z,12.7
2023-07-29T10:05:00.160Z,22.2
2023-07-29T10:10:00.142Z,16.9
2023-07-29T10:15:00.131Z,18.5
2023-07-29T10:20:00.149Z,18.6
2023-07-29T10:25:00.132Z,20.3
2023-07-29T10:30:00.131Z,25.2
2023-07-29T10:35:00.132Z,18.4
2023-07-29T10:40:00.111Z,12.2
2023-07-29T10:45:00.146Z,20.5
2023-07-29T10:50:00.132Z,25.3
2023-07-29T10:55:00.173Z,19.2
2023-07-29T11:00:00.162Z,17.9
2023-07-29T11:05:00.141Z,25.6
2023-07-29T11:10:00.135Z,22.7
2023-07-29T11:15:00.136Z,22.7
2023-07-29T11:20:00.182Z,21.3
2023-07-29T11:25:00.108Z,20.2
2023-07-29T11:30:00.133Z,18.6
2023-07-29T11:35:00.130Z,18.6
2023-07-29T11:40:00.158Z,17
2023-07-29T11:45:00.119Z,19.8
2023-07-29T11:50:00.158Z,24.3
2023-07-29T11:55:00.137Z,21.9
2023-07-29T12:00:00.117Z,15
2023-07-29T12:05:00.136Z,15.7
2023-07-29T12:10:00.144Z,29.2
2023-07-29T12:15:00.125Z,29.4
2023-07-29T12:20:00.113Z,25.7
2023-07-29T12:25:00.153Z,26.5
2023-07-29T12:30:00.144Z,22.8
2023-07-29T12:35:00.147Z,22.8
2023-07-29T12:40:00.132Z,25.2
2023-07-29T12:45:00.135Z,22.6
2023-07-29T12:50:00.132Z,24.4
2023-07-29T12:55:00.162Z,35.7
2023-07-29T13:00:00.142Z,40.6
2023-07-29T13:05:00.126Z,38.5
2023-07-29T13:10:00.166Z,31.3
2023-07-29T13:15:00.133Z,39.1
2023-07-29T13:20:00.138Z,38.2
2023-07-29T13:25:00.126Z,36.1
2023-07-29T13:30:00.172Z,40
2023-07-29T13:35:00.138Z,32.3
2023-07-29T13:40:00.167Z,32.1
2023-07-29T13:45:00.131Z,30.8
2023-07-29T13:50:00.149Z,35.9
2023-07-29T13:55:00.276Z,32.8
2023-07-29T14:00:00.126Z,35.4
2023-07-29T14:05:00.238Z,37.7
2023-07-29T14:10:01.843Z,31.9
2023-07-29T14:15:00.188Z,29.8
2023-07-29T14:20:00.157Z,22.9
2023-07-29T14:25:01.044Z,27.9
2023-07-29T14:30:00.157Z,29.1
2023-07-29T14:35:00.147Z,30.8
2023-07-29T14:40:00.128Z,33.2
2023-07-29T14:45:00.139Z,41.2
2023-07-29T14:50:00.128Z,28.8
2023-07-29T14:55:00.164Z,31.2
2023-07-29T15:00:00.173Z,29.8
2023-07-29T15:05:00.122Z,27.9
2023-07-29T15:10:00.241Z,31
2023-07-29T15:15:00.141Z,32.1
2023-07-29T15:20:00.184Z,15.4
2023-07-29T15:25:00.151Z,20.8
2023-07-29T15:30:00.249Z,23
2023-07-29T15:35:00.131Z,35.4
2023-07-29T15:40:00.133Z,40.3
2023-07-29T15:45:00.164Z,39.7
2023-07-29T15:50:00.152Z,25.9
2023-07-29T15:55:00.173Z,19.5
2023-07-29T16:00:00.156Z,24.5
2023-07-29T16:05:00.129Z,20.2
2023-07-29T16:10:00.122Z,28
2023-07-29T16:15:00.207Z,22.7
2023-07-29T16:20:00.207Z,18.8
2023-07-29T16:25:00.161Z,22.1
2023-07-29T16:30:00.162Z,28.9
2023-07-29T16:35:00.161Z,23.3
2023-07-29T16:40:00.131Z,29.8
2023-07-29T16:45:00.188Z,28.2
2023-07-29T16:50:09.093Z,33.2
2023-07-29T16:55:00.328Z,29.8
2023-07-29T17:00:00.156Z,21.9
2023-07-29T17:05:00.162Z,17.8
2023-07-29T17:10:00.171Z,13.3
2023-07-29T17:15:00.153Z,15
2023-07-29T17:20:00.195Z,19.6
2023-07-29T17:25:00.143Z,25.6
2023-07-29T20:00:00.118Z,13.5
2023-07-29T20:05:00.122Z,11.6
2023-07-29T20:10:00.145Z,10.6
2023-07-29T20:20:00.144Z,9.8
2023-07-29T20:25:00.139Z,10.5
2023-07-29T20:30:03.038Z,9.4
2023-07-29T20:35:00.138Z,8.4
2023-07-29T20:40:00.113Z,10.1
2023-07-29T20:45:00.278Z,12
2023-07-29T20:50:00.114Z,13.7
2023-07-29T20:55:00.128Z,11.3
2023-07-29T21:00:00.134Z,14.2
2023-07-29T21:05:00.125Z,13.4
2023-07-29T21:10:00.106Z,14.9
2023-07-29T21:15:00.114Z,13.2
2023-07-29T21:20:00.105Z,14.7
2023-07-29T21:25:00.136Z,15.9
2023-07-29T21:30:00.108Z,14.3
2023-07-29T21:35:00.100Z,10.9
2023-07-29T21:40:00.117Z,10.2
2023-07-29T21:45:00.119Z,10.2
2023-07-29T21:50:00.138Z,9.3
2023-07-29T21:55:00.095Z,13.3
2023-07-29T22:00:00.137Z,11.5
2023-07-29T22:05:00.124Z,12.5
2023-07-29T22:10:00.135Z,13.2
2023-07-29T22:15:00.115Z,11.5
2023-07-29T22:20:00.142Z,10.9
2023-07-29T22:25:00.105Z,8.3
2023-07-29T22:30:00.114Z,8.3
2023-07-29T22:35:00.117Z,9.4
2023-07-29T22:40:00.145Z,13.1
2023-07-29T22:45:00.140Z,12.2
2023-07-29T22:50:00.137Z,11.3
2023-07-29T22:55:00.147Z,12.1
2023-07-29T23:00:00.185Z,12
2023-07-29T23:05:00.145Z,12.3
2023-07-29T23:10:00.143Z,10.1
2023-07-29T23:15:00.129Z,9.1
2023-07-29T23:20:00.161Z,11.9
2023-07-29T23:25:00.128Z,12.7
2023-07-29T23:30:00.160Z,12.5
2023-07-29T23:35:00.140Z,11.9
2023-07-29T23:40:00.141Z,9.8
2023-07-29T23:45:00.107Z,14.1
2023-07-29T23:50:00.147Z,12.3
2023-07-29T23:55:00.138Z,13.7
